Time Latitude Longitude Accuracy (66% radius in meters) Altitude (meters) Speed (km/hour) Bearing (degrees) Battery (%) GPS flag
11:04:05 57.150606 39.348882 5.5 108.19999694824 0 0 10 1 delete
11:03:45 57.150584 39.348827 18 109.19999694824 0.34999999403954 311.42944335938 10 1 delete
11:03:39 57.150715 39.348548 16.5 84.800003051758 0.75 314.21447753906 10 1 delete
10:53:31 57.150559 39.348226 9 108.69999694824 0 0 12 1 delete
10:53:06 57.150572 39.348187 14.5 82.300003051758 0.56999999284744 258.46984863281 12 1 delete
10:43:00 57.150400 39.348147 9 101.09999847412 0 0 12 1 delete
10:42:40 57.150337 39.348105 21.5 110.30000305176 0 0 12 1 delete
10:42:35 57.150665 39.348163 19.5 109.69999694824 0.38999998569489 341.58142089844 12 1 delete
10:32:25 57.150488 39.348228 6 118.90000152588 0 0 13 1 delete
10:32:05 57.150450 39.348210 12 125.80000305176 0 0 13 1 delete
10:31:59 57.150486 39.348429 24.5 106.40000152588 0.75999999046326 100.7666015625 13 1 delete
10:21:53 57.150633 39.348269 8 105.40000152588 0 0 13 1 delete
10:21:38 57.150633 39.348269 8.5 105.40000152588 0 0 13 1 delete
10:11:18 57.150548 39.348205 8.5 112.59999847412 0 0 13 1 delete
10:11:08 57.150548 39.348205 11.5 112.59999847412 0 0 13 1 delete
10:11:02 57.150514 39.348381 24.5 119.40000152588 0.46999999880791 192.33215332031 13 1 delete
10:00:51 57.150472 39.348113 7 95.400001525879 0.18999999761581 219.0234375 13 1 delete
10:00:46 57.150511 39.348180 6.5 93.800003051758 0 0 13 1 delete
10:00:16 57.150638 39.348287 4 91.900001525879 0 0 13 1 delete
09:59:46 57.150638 39.348287 4 91.900001525879 0 0 13 1 delete
09:58:41 57.150626 39.348284 7.5 93.199996948242 0.44999998807907 1.5875244140625 13 1 delete
09:48:07 57.150571 39.348328 8 111.59999847412 0 0 13 1 delete
09:47:52 57.150556 39.348323 10.5 109.59999847412 0.019999999552965 84.232177734375 13 1 delete
09:47:46 57.150629 39.348631 15.5 92.800003051758 0.55000001192093 344.08081054688 13 1 delete
09:37:33 57.150493 39.348198 11 97.300003051758 0 0 13 1 delete
09:37:18 57.150490 39.348165 15.5 107.80000305176 0 0 13 1 delete
09:37:12 57.150659 39.348464 25 121.80000305176 1.289999961853 169.57397460938 13 1 delete
09:27:04 57.150409 39.348137 8 88.800003051758 0 0 13 1 delete
09:26:43 57.150401 39.348141 13 78.400001525879 0.8299999833107 209.20166015625 13 1 delete
09:16:29 57.150579 39.347961 7.5 83.800003051758 0.46999999880791 29.503784179688 13 1 delete
09:16:24 57.150603 39.347972 8.5 87.300003051758 0 267.04467773438 13 1 delete
09:16:14 57.150686 39.348078 9.5 87.900001525879 0 0 13 1 delete
09:16:08 57.150678 39.348422 20 109.09999847412 1.7799999713898 37.479858398438 13 1 delete
09:06:01 57.150503 39.348203 7.5 108.59999847412 0 0 13 1 delete
09:05:56 57.150504 39.348220 9 108.59999847412 0.43999999761581 290.06103515625 13 1 delete
09:05:35 57.150499 39.348400 14.5 97.400001525879 0.47999998927116 91.0107421875 13 1 delete
08:55:24 57.150506 39.348166 7 108.30000305176 0 0 13 1 delete
08:55:08 57.150458 39.348200 14.5 98.400001525879 0.12999999523163 223.84643554688 13 1 delete
08:55:02 57.150424 39.347968 18.5 90.900001525879 0.37000000476837 308.84216308594 13 1 delete
08:44:57 57.150465 39.348306 7 89 0 0 13 1 delete
08:44:37 57.150444 39.348289 13 81.900001525879 0 0 13 1 delete
08:44:31 57.150644 39.348138 23 117.90000152588 0.66999995708466 308.91906738281 13 1 delete
08:34:24 57.150244 39.347915 1.5 110.30000305176 0.62999999523163 339.68078613281 13 1 delete
08:34:19 57.150216 39.347932 1.5 112.30000305176 0.56999999284744 326.66198730469 13 1 delete
08:33:58 57.150108 39.347940 7.5 102.5 0.45999997854233 278.99230957031 13 1 delete
08:23:53 57.112807 39.318029 1 118.09999847412 19.979999542236 11.925659179688 13 1 delete
08:23:48 57.111933 39.317669 1 117.5 19.879999160767 12.54638671875 13 1 delete
08:23:43 57.111064 39.317350 1 117.40000152588 19.829999923706 12.474975585938 13 1 delete
08:23:38 57.110185 39.317011 1 115.59999847412 19.779998779297 11.568603515625 13 1 delete
08:23:33 57.109308 39.316730 2.5 114.69999694824 19.989999771118 4.7296142578125 13 1 delete